Princess Juliana International, Saint Maartin

4:40 PM AST on September 29, 2016 (GMT -0400)
Princess Juliana International | | Change Station

Elev 13 ft 18.04 °N, 63.11 °W | Updated 40 minutes ago

Partly Cloudy
Partly Cloudy
86 °F
Feels Like 97 °F
N
15
Wind Variable Wind from East
Gusts 28 mph

Today
High -- | Low -- °F
--% Chance of Precip.
Yesterday
High -- | Low -- °F
Precip. -- in
Pressure 29.95 in
Visibility 6.2 miles
Clouds Few 2400 ft
Heat Index 97 °F
Dew Point 77 °F
Humidity 74%
Rainfall 0.00 in
Snow Depth Not available.
6:02 AM 6:02 PM
Waning Crescent, 1% visible
METAR TNCM 292000Z 09013G24KT 9999 FEW024 30/25 Q1014 A2996 NOSIG RMK MIN VIS 10KM N WDSPRD HZ THKST HZ NERN/SERN QUAD SMK N
Pressure 29.95 in
Visibility 6.2 miles
Clouds Few 2400 ft
Heat Index 97 °F
Dew Point 77 °F
Humidity 74%
Rainfall 0.00 in
Snow Depth Not available.
6:02 AM 6:02 PM
Waning Crescent, 1% visible
METAR TNCM 292000Z 09013G24KT 9999 FEW024 30/25 Q1014 A2996 NOSIG RMK MIN VIS 10KM N WDSPRD HZ THKST HZ NERN/SERN QUAD SMK N

10-Day Weather Forecast

No radar image for this location.
×

Almanac

Astronomy

Sep. 29, 2016 Rise Set
Actual Time
Civil Twilight
Nautical Twilight
Astronomical Twilight
Moon
Length of Visible Light
Length of Day
Tomorrow will be .
, % of the Moon is Illuminated

Today's Extremes

Country Highs Country Lows

Community

WunderPhotos

Upload Photos

1,942,564 photos uploaded!

WunderBlog® & News

Nearby

Air Quality

  Air Quality AQ Index Pollutant
Not available.

Snow Depth

Station Depth Elevation

Earthquake Activity

City Distance Mag. Time & Date
Minimum magnitude displayed is 2.5.

Coastal Water Temperatures

Place Temperature

Stations

Nearby Weather Stations

Station Location Temp. Windchill Dew Point Humidity Wind Precip. Elev Updated Type